createdAt,value
2023-04-10T00:00:24.068Z,6.63
2023-04-10T00:01:26.174Z,6.68
2023-04-10T00:02:29.422Z,6.18
2023-04-10T00:03:33.950Z,6.68
2023-04-10T00:04:37.117Z,6.82
2023-04-10T00:05:39.211Z,6.75
2023-04-10T00:06:42.221Z,6.45
2023-04-10T00:07:44.251Z,6.90
2023-04-10T00:08:47.259Z,8.02
2023-04-10T00:09:49.268Z,7.55
2023-04-10T00:10:53.250Z,7.30
2023-04-10T00:11:56.080Z,6.78
2023-04-10T00:13:00.760Z,6.70
2023-04-10T00:14:02.662Z,7.30
2023-04-10T00:15:06.446Z,7.80
2023-04-10T00:16:08.635Z,7.07
2023-04-10T00:17:11.690Z,7.25
2023-04-10T00:18:13.758Z,6.72
2023-04-10T00:19:18.311Z,7.60
2023-04-10T00:20:20.585Z,6.68
2023-04-10T00:21:23.526Z,6.85
2023-04-10T00:22:25.813Z,7.07
2023-04-10T00:23:31.811Z,6.80
2023-04-10T00:24:34.148Z,7.88
2023-04-10T00:25:37.041Z,7.28
2023-04-10T00:26:38.987Z,7.40
2023-04-10T00:27:41.974Z,6.70
2023-04-10T00:28:43.925Z,6.43
2023-04-10T00:29:46.832Z,7.15
2023-04-10T00:30:50.224Z,7.45
2023-04-10T00:31:52.300Z,8.13
2023-04-10T00:32:55.455Z,7.72
2023-04-10T00:33:57.445Z,8.60
2023-04-10T00:35:01.780Z,7.07
2023-04-10T00:36:04.056Z,6.93
2023-04-10T00:37:07.296Z,6.65
2023-04-10T00:38:09.534Z,8.05
2023-04-10T00:39:12.757Z,7.00
2023-04-10T00:40:14.695Z,6.63
2023-04-10T00:41:17.933Z,7.53
2023-04-10T00:42:19.886Z,7.05
2023-04-10T00:43:24.315Z,7.43
2023-04-10T00:44:26.302Z,6.68
2023-04-10T00:45:29.365Z,7.30
2023-04-10T00:46:32.112Z,7.90
2023-04-10T00:47:36.629Z,6.85
2023-04-10T00:48:38.662Z,7.68
2023-04-10T00:49:42.536Z,7.05
2023-04-10T00:50:47.391Z,7.40
2023-04-10T00:51:49.788Z,6.43
2023-04-10T00:52:52.767Z,6.85
2023-04-10T00:53:55.180Z,7.05
2023-04-10T00:54:58.627Z,7.75
2023-04-10T00:56:01.397Z,7.38
2023-04-10T00:57:05.072Z,7.65
2023-04-10T00:58:07.033Z,6.70
2023-04-10T00:59:10.320Z,7.25
2023-04-10T01:00:13.333Z,6.05
2023-04-10T01:01:16.328Z,7.20
2023-04-10T01:02:18.775Z,7.32
2023-04-10T01:03:22.768Z,7.75
2023-04-10T01:04:26.709Z,6.95
2023-04-10T01:05:36.418Z,6.50
2023-04-10T01:06:53.402Z,7.50
2023-04-10T01:08:06.969Z,8.30
2023-04-10T01:09:14.909Z,7.47
2023-04-10T01:10:24.676Z,8.50
2023-04-10T01:11:37.516Z,6.57
2023-04-10T01:12:53.069Z,7.53
2023-04-10T01:14:03.682Z,6.88
2023-04-10T01:15:11.492Z,6.75
2023-04-10T01:16:20.589Z,7.20
2023-04-10T01:17:30.065Z,7.38
2023-04-10T01:18:36.859Z,7.50
2023-04-10T01:20:00.750Z,6.70
2023-04-10T01:21:05.655Z,7.40
2023-04-10T01:22:13.595Z,7.03
2023-04-10T01:23:46.642Z,7.53
2023-04-10T01:25:02.669Z,7.05
2023-04-10T01:26:06.483Z,7.95
2023-04-10T01:27:20.566Z,8.10
2023-04-10T01:28:41.317Z,7.18
2023-04-10T01:29:48.906Z,6.53
2023-04-10T01:30:53.917Z,6.60
2023-04-10T01:32:02.693Z,7.93
2023-04-10T01:33:07.561Z,8.48
2023-04-10T01:34:16.192Z,7.78
2023-04-10T01:35:19.571Z,7.65
2023-04-10T01:36:28.008Z,7.07
2023-04-10T01:37:33.510Z,6.82
2023-04-10T01:38:40.580Z,7.90
2023-04-10T01:39:43.784Z,6.85
2023-04-10T01:40:51.819Z,7.15
2023-04-10T01:41:56.589Z,7.63
2023-04-10T01:43:01.540Z,8.60
2023-04-10T01:44:06.470Z,7.35
2023-04-10T01:45:13.212Z,7.30
2023-04-10T01:46:16.826Z,7.57
2023-04-10T01:47:20.580Z,7.95
2023-04-10T01:48:22.553Z,7.25
2023-04-10T01:49:28.305Z,7.18
2023-04-10T01:50:31.871Z,7.65
2023-04-10T01:51:36.566Z,7.65
2023-04-10T01:52:40.226Z,7.82
2023-04-10T01:53:45.318Z,7.25
2023-04-10T01:54:48.918Z,7.22
2023-04-10T01:55:53.625Z,7.03
2023-04-10T01:56:56.784Z,7.38
2023-04-10T01:58:00.638Z,7.18
2023-04-10T01:59:04.098Z,6.95
2023-04-10T02:00:08.889Z,6.65
2023-04-10T02:01:19.332Z,7.22
2023-04-10T02:02:32.595Z,6.65
2023-04-10T02:03:34.875Z,7.38
2023-04-10T02:04:37.999Z,7.13
2023-04-10T02:05:49.257Z,7.57
2023-04-10T02:07:06.049Z,6.82
2023-04-10T02:08:13.191Z,7.00
2023-04-10T02:09:22.944Z,7.40
2023-04-10T02:10:29.722Z,6.25
2023-04-10T02:11:39.759Z,7.15
2023-04-10T02:12:46.723Z,7.35
2023-04-10T02:13:50.705Z,7.38
2023-04-10T02:14:56.198Z,7.70
2023-04-10T02:16:04.330Z,7.72
2023-04-10T02:17:08.423Z,6.53
2023-04-10T02:18:12.428Z,7.80
2023-04-10T02:19:14.869Z,6.78
2023-04-10T02:20:19.363Z,7.07
2023-04-10T02:21:21.461Z,7.57
2023-04-10T02:22:26.592Z,7.78
2023-04-10T02:23:28.593Z,8.13
2023-04-10T02:24:33.178Z,7.00
2023-04-10T02:25:35.912Z,7.88
2023-04-10T02:26:48.768Z,7.95
2023-04-10T02:27:50.726Z,7.13
2023-04-10T02:28:53.622Z,6.60
2023-04-10T02:29:56.944Z,6.93
2023-04-10T02:30:59.901Z,7.30
2023-04-10T02:32:01.911Z,6.63
2023-04-10T02:33:05.151Z,6.90
2023-04-10T02:34:07.308Z,7.40
2023-04-10T02:35:10.598Z,7.07
2023-04-10T02:36:12.939Z,7.45
2023-04-10T02:37:16.660Z,7.05
2023-04-10T02:38:18.566Z,7.38
2023-04-10T02:39:21.483Z,6.10
2023-04-10T02:40:23.554Z,7.40
2023-04-10T02:41:26.483Z,7.07
2023-04-10T02:42:28.385Z,6.93
2023-04-10T02:43:31.348Z,7.97
2023-04-10T02:44:33.303Z,7.90
2023-04-10T02:45:37.564Z,7.80
2023-04-10T02:46:39.614Z,7.65
2023-04-10T02:47:42.633Z,7.40
2023-04-10T02:48:45.064Z,7.50
2023-04-10T02:49:48.325Z,7.35
2023-04-10T02:50:50.307Z,6.45
2023-04-10T02:51:53.255Z,6.40
2023-04-10T02:52:55.461Z,6.90
2023-04-10T02:53:58.368Z,6.68
2023-04-10T02:55:00.626Z,7.53
2023-04-10T02:56:03.625Z,7.30
2023-04-10T02:57:05.919Z,6.93
2023-04-10T02:58:09.142Z,7.30
2023-04-10T02:59:11.081Z,6.63
2023-04-10T03:00:15.027Z,7.03
2023-04-10T03:01:18.482Z,7.07
2023-04-10T03:02:21.842Z,7.32
2023-04-10T03:03:24.131Z,7.15
2023-04-10T03:04:28.121Z,6.38
2023-04-10T03:05:30.362Z,6.35
2023-04-10T03:06:33.324Z,7.10
2023-04-10T03:07:35.429Z,7.40
2023-04-10T03:08:38.371Z,6.28
2023-04-10T03:09:40.622Z,6.40
2023-04-10T03:10:44.870Z,6.45
2023-04-10T03:11:46.838Z,6.90
2023-04-10T03:12:50.185Z,6.97
2023-04-10T03:13:52.611Z,6.63
2023-04-10T03:14:55.708Z,7.22
2023-04-10T03:15:57.702Z,7.95
2023-04-10T03:17:02.052Z,6.65
2023-04-10T03:18:04.580Z,6.88
2023-04-10T03:19:07.765Z,6.50
2023-04-10T03:20:11.387Z,6.35
2023-04-10T03:21:14.351Z,6.63
2023-04-10T03:22:16.305Z,6.70
2023-04-10T03:23:19.269Z,7.40
2023-04-10T03:24:21.287Z,8.23
2023-04-10T03:25:24.257Z,6.68
2023-04-10T03:26:26.239Z,6.20
2023-04-10T03:27:32.097Z,7.20
2023-04-10T03:28:35.555Z,5.70
2023-04-10T03:29:38.843Z,5.93
2023-04-10T03:30:40.940Z,6.35
2023-04-10T03:31:43.860Z,6.55
2023-04-10T03:32:47.138Z,6.07
2023-04-10T03:33:50.121Z,6.70
2023-04-10T03:34:52.067Z,6.72
2023-04-10T03:35:55.012Z,6.22
2023-04-10T03:36:58.055Z,6.30
2023-04-10T03:38:00.291Z,6.03
2023-04-10T03:39:03.195Z,6.85
2023-04-10T03:40:07.451Z,7.43
2023-04-10T03:41:10.383Z,6.65
2023-04-10T03:42:12.295Z,6.50
2023-04-10T03:43:15.455Z,6.70
2023-04-10T03:44:17.830Z,7.30
2023-04-10T03:45:20.890Z,6.63
2023-04-10T03:46:23.054Z,7.10
2023-04-10T03:47:26.337Z,6.97
2023-04-10T03:48:30.714Z,6.15
2023-04-10T03:49:33.693Z,7.30
2023-04-10T03:50:35.666Z,6.50
2023-04-10T03:51:38.626Z,7.75
2023-04-10T03:52:40.818Z,6.22
2023-04-10T03:53:43.817Z,6.30
2023-04-10T03:54:45.981Z,6.60
2023-04-10T03:55:48.957Z,7.03
2023-04-10T03:56:50.908Z,5.88
2023-04-10T03:57:53.852Z,6.65
2023-04-10T03:58:55.831Z,6.22
2023-04-10T03:59:58.738Z,6.97
2023-04-10T04:01:00.672Z,6.13
2023-04-10T04:02:03.792Z,6.72
2023-04-10T04:03:06.104Z,6.50
2023-04-10T04:04:10.741Z,6.60
2023-04-10T04:05:13.054Z,6.75
2023-04-10T04:06:16.072Z,6.85
2023-04-10T04:07:18.013Z,6.10
2023-04-10T04:08:20.974Z,6.88
2023-04-10T04:09:22.947Z,6.85
2023-04-10T04:10:25.898Z,6.70
2023-04-10T04:11:27.881Z,7.75
2023-04-10T04:12:30.834Z,8.15
2023-04-10T04:13:32.779Z,6.00
2023-04-10T04:14:35.820Z,5.78
2023-04-10T04:15:37.769Z,6.90
2023-04-10T04:16:40.817Z,7.35
2023-04-10T04:17:43.396Z,5.85
2023-04-10T04:18:46.433Z,5.90
2023-04-10T04:19:49.775Z,6.63
2023-04-10T04:20:52.709Z,6.70
2023-04-10T04:21:54.709Z,6.65
2023-04-10T04:22:57.656Z,6.40
2023-04-10T04:23:59.630Z,6.65
2023-04-10T04:25:02.856Z,6.90
2023-04-10T04:26:05.207Z,7.30
2023-04-10T04:27:08.957Z,7.07
2023-04-10T04:28:13.646Z,6.65
2023-04-10T04:29:16.611Z,6.00
2023-04-10T04:30:18.584Z,7.00
2023-04-10T04:31:21.575Z,6.90
2023-04-10T04:32:23.544Z,6.28
2023-04-10T04:33:26.586Z,6.68
2023-04-10T04:34:28.567Z,6.20
2023-04-10T04:35:32.858Z,7.88
2023-04-10T04:36:34.784Z,7.05
2023-04-10T04:37:37.717Z,6.93
2023-04-10T04:38:39.950Z,6.07
2023-04-10T04:39:42.895Z,7.13
2023-04-10T04:40:44.805Z,6.30
2023-04-10T04:41:47.695Z,7.55
2023-04-10T04:42:50.614Z,6.95
2023-04-10T04:43:53.539Z,7.60
2023-04-10T04:44:56.723Z,6.63
2023-04-10T04:45:59.424Z,6.90
2023-04-10T04:47:02.464Z,6.63
2023-04-10T04:48:04.530Z,5.95
2023-04-10T04:49:07.581Z,7.70
2023-04-10T04:50:10.236Z,6.95
2023-04-10T04:51:14.499Z,7.82
2023-04-10T04:52:16.431Z,7.10
2023-04-10T04:53:19.348Z,6.75
2023-04-10T04:54:21.303Z,6.95
2023-04-10T04:55:24.254Z,6.57
2023-04-10T04:56:26.223Z,7.43
2023-04-10T04:57:29.125Z,6.43
2023-04-10T04:58:31.244Z,6.72
2023-04-10T04:59:34.246Z,7.60
2023-04-10T05:00:36.242Z,7.38
2023-04-10T05:01:39.307Z,7.63
2023-04-10T05:02:41.427Z,7.40
2023-04-10T05:03:44.524Z,7.57
2023-04-10T05:04:46.477Z,8.18
2023-04-10T05:05:49.471Z,6.63
2023-04-10T05:06:52.808Z,6.38
2023-04-10T05:07:55.838Z,6.70
2023-04-10T05:08:57.749Z,7.28
2023-04-10T05:10:00.704Z,7.97
2023-04-10T05:11:02.627Z,6.50
2023-04-10T05:12:06.104Z,7.13
2023-04-10T05:13:08.077Z,7.35
2023-04-10T05:14:11.222Z,6.93
2023-04-10T05:15:14.178Z,6.90
2023-04-10T05:16:16.338Z,7.13
2023-04-10T05:17:20.259Z,6.80
2023-04-10T05:18:23.750Z,7.22
2023-04-10T05:19:26.869Z,7.45
2023-04-10T05:20:29.109Z,6.85
2023-04-10T05:21:32.753Z,6.72
2023-04-10T05:22:36.153Z,7.55
2023-04-10T05:23:39.189Z,7.45
2023-04-10T05:24:41.180Z,7.50
2023-04-10T05:25:44.119Z,7.43
2023-04-10T05:26:47.482Z,8.23
2023-04-10T05:27:49.387Z,8.02
2023-04-10T05:28:52.751Z,8.18
2023-04-10T05:29:54.944Z,7.78
2023-04-10T05:30:57.939Z,7.85
2023-04-10T05:31:59.997Z,6.65
2023-04-10T05:33:03.040Z,8.25
2023-04-10T05:34:05.167Z,8.02
2023-04-10T05:35:09.167Z,7.45
2023-04-10T05:36:11.289Z,7.75
2023-04-10T05:37:14.191Z,7.25
2023-04-10T05:38:17.472Z,7.97
2023-04-10T05:39:20.472Z,7.00
2023-04-10T05:40:22.400Z,7.10
2023-04-10T05:41:25.376Z,7.65
2023-04-10T05:42:27.345Z,8.07
2023-04-10T05:43:30.250Z,8.32
2023-04-10T05:44:32.400Z,8.27
2023-04-10T05:45:35.326Z,8.52
2023-04-10T05:46:37.309Z,7.82
2023-04-10T05:47:40.385Z,7.70
2023-04-10T05:48:42.552Z,7.43
2023-04-10T05:49:45.577Z,7.93
2023-04-10T05:50:47.488Z,7.13
2023-04-10T05:51:51.952Z,7.70
2023-04-10T05:52:56.184Z,6.78
2023-04-10T05:53:59.641Z,6.95
2023-04-10T05:55:02.764Z,7.68
2023-04-10T05:56:05.139Z,7.10
2023-04-10T05:57:08.106Z,7.10
2023-04-10T05:58:10.053Z,7.05
2023-04-10T05:59:13.423Z,7.82
2023-04-10T06:00:17.940Z,8.55
2023-04-10T06:01:20.940Z,19.08
2023-04-10T06:02:22.941Z,19.42
2023-04-10T06:03:27.469Z,13.88
2023-04-10T06:04:30.798Z,13.00
2023-04-10T06:05:33.296Z,10.63
2023-04-10T06:06:36.282Z,11.10
2023-04-10T06:07:38.373Z,13.32
2023-04-10T06:08:41.576Z,13.82
2023-04-10T06:09:44.847Z,10.77
2023-04-10T06:10:47.962Z,11.80
2023-04-10T06:11:51.018Z,9.18
2023-04-10T06:12:52.963Z,8.73
2023-04-10T06:13:55.899Z,7.93
2023-04-10T06:14:57.840Z,7.15
2023-04-10T06:16:01.078Z,8.27
2023-04-10T06:17:03.312Z,9.00
2023-04-10T06:18:06.282Z,3.97
2023-04-10T06:19:08.230Z,7.05
2023-04-10T06:20:12.004Z,8.27
2023-04-10T06:21:15.003Z,12.02
2023-04-10T06:22:16.919Z,15.35
2023-04-10T06:23:19.834Z,19.05
2023-04-10T06:24:21.789Z,15.18
2023-04-10T06:25:26.569Z,15.40
2023-04-10T06:26:28.684Z,15.57
2023-04-10T06:27:31.662Z,13.10
2023-04-10T06:28:34.568Z,11.90
2023-04-10T06:29:36.595Z,11.68
2023-04-10T06:30:39.632Z,11.30
2023-04-10T06:31:41.641Z,12.05
2023-04-10T06:32:44.745Z,11.27
2023-04-10T06:33:46.992Z,10.10
2023-04-10T06:34:49.896Z,9.23
2023-04-10T06:35:52.880Z,9.77
2023-04-10T06:36:54.808Z,8.93
2023-04-10T06:37:57.734Z,9.20
2023-04-10T06:38:59.705Z,10.13
2023-04-10T06:40:07.374Z,8.50
2023-04-10T06:41:11.712Z,8.55
2023-04-10T06:42:13.622Z,8.27
2023-04-10T06:43:16.582Z,8.75
2023-04-10T06:44:18.564Z,9.70
2023-04-10T06:45:21.899Z,8.57
2023-04-10T06:46:23.854Z,9.10
2023-04-10T06:47:26.867Z,9.43
2023-04-10T06:48:28.795Z,9.27
2023-04-10T06:49:31.736Z,8.63
2023-04-10T06:50:33.738Z,9.45
2023-04-10T06:51:36.680Z,9.60
2023-04-10T06:52:38.686Z,9.40
2023-04-10T06:53:41.586Z,8.48
2023-04-10T06:54:43.809Z,8.90
2023-04-10T06:55:46.712Z,9.82
2023-04-10T06:56:50.049Z,9.75
2023-04-10T06:57:53.182Z,9.27
2023-04-10T06:58:56.270Z,9.55
2023-04-10T06:59:59.286Z,9.77
2023-04-10T07:01:04.547Z,11.35
2023-04-10T07:02:07.784Z,11.57
2023-04-10T07:03:10.833Z,10.25
2023-04-10T07:04:12.948Z,10.85
2023-04-10T07:05:16.159Z,9.93
2023-04-10T07:06:19.151Z,11.27
2023-04-10T07:07:21.375Z,10.93
2023-04-10T07:08:24.359Z,10.55
2023-04-10T07:09:27.397Z,10.48
2023-04-10T07:10:30.405Z,11.80
2023-04-10T07:11:32.314Z,9.25
2023-04-10T07:12:36.635Z,9.45
2023-04-10T07:13:40.158Z,11.68
2023-04-10T07:14:43.196Z,10.40
2023-04-10T07:15:45.373Z,10.65
2023-04-10T07:16:48.326Z,10.60
2023-04-10T07:17:51.334Z,10.63
2023-04-10T07:18:53.760Z,11.00
2023-04-10T07:19:57.007Z,10.63
2023-04-10T07:20:59.030Z,10.85
2023-04-10T07:22:02.211Z,10.70
2023-04-10T07:23:05.215Z,10.88
2023-04-10T07:24:08.140Z,10.70
2023-04-10T07:25:10.470Z,11.38
2023-04-10T07:26:13.459Z,11.25
2023-04-10T07:27:17.025Z,11.15
2023-04-10T07:28:21.394Z,10.65
2023-04-10T07:29:24.377Z,11.65
2023-04-10T07:30:27.469Z,10.43
2023-04-10T07:31:30.529Z,11.18
2023-04-10T07:32:34.978Z,11.50
2023-04-10T07:33:38.440Z,11.13
2023-04-10T07:34:42.147Z,11.35
2023-04-10T07:35:44.167Z,10.98
2023-04-10T07:36:47.148Z,10.85
2023-04-10T07:37:52.005Z,11.25
2023-04-10T07:38:54.113Z,11.57
2023-04-10T07:39:57.373Z,11.55
2023-04-10T07:40:59.790Z,10.88
2023-04-10T07:42:02.727Z,10.80
2023-04-10T07:43:05.744Z,11.10
2023-04-10T07:44:10.558Z,10.75
2023-04-10T07:45:12.638Z,10.98
2023-04-10T07:46:15.726Z,10.93
2023-04-10T07:47:18.040Z,10.18
2023-04-10T07:48:21.265Z,12.85
2023-04-10T07:49:23.316Z,10.50
2023-04-10T07:50:26.389Z,11.50
2023-04-10T07:51:29.403Z,10.60
2023-04-10T07:52:32.359Z,11.93
2023-04-10T07:53:34.322Z,11.23
2023-04-10T07:54:37.369Z,11.73
2023-04-10T07:55:39.488Z,12.50
2023-04-10T07:56:42.454Z,11.05
2023-04-10T07:57:44.638Z,11.77
2023-04-10T07:58:48.123Z,11.82
2023-04-10T07:59:52.432Z,11.32
2023-04-10T08:00:54.424Z,11.35
2023-04-10T08:01:57.499Z,12.43
2023-04-10T08:02:59.856Z,11.35
2023-04-10T08:04:05.649Z,11.20
2023-04-10T08:05:09.775Z,12.50
2023-04-10T08:06:12.474Z,11.20
2023-04-10T08:07:15.385Z,11.07
2023-04-10T08:08:17.540Z,11.05
2023-04-10T08:09:20.467Z,12.48
2023-04-10T08:10:22.712Z,12.00
2023-04-10T08:11:27.538Z,10.13
2023-04-10T08:12:29.542Z,10.68
2023-04-10T08:13:32.522Z,10.45
2023-04-10T08:14:34.505Z,11.65
2023-04-10T08:15:38.967Z,10.65
2023-04-10T08:16:41.141Z,9.93
2023-04-10T08:17:44.183Z,9.50
2023-04-10T08:18:46.313Z,11.35
2023-04-10T08:19:49.282Z,11.20
2023-04-10T08:20:52.288Z,11.15
2023-04-10T08:21:56.142Z,10.65
2023-04-10T08:23:06.288Z,11.45
2023-04-10T08:24:22.975Z,11.73
2023-04-10T08:25:24.914Z,11.25
2023-04-10T08:26:28.955Z,11.15
2023-04-10T08:27:31.904Z,11.60
2023-04-10T08:28:35.128Z,10.68
2023-04-10T08:29:38.051Z,11.27
2023-04-10T08:30:42.347Z,10.65
2023-04-10T08:31:45.311Z,11.05
2023-04-10T08:32:47.204Z,12.00
2023-04-10T08:33:50.657Z,11.18
2023-04-10T08:34:52.617Z,10.43
2023-04-10T08:35:55.601Z,9.40
2023-04-10T08:36:58.084Z,8.95
2023-04-10T08:38:12.818Z,9.70
2023-04-10T08:39:16.954Z,9.55
2023-04-10T08:40:19.002Z,9.27
2023-04-10T08:41:22.221Z,11.32
2023-04-10T08:42:24.355Z,9.82
2023-04-10T08:43:27.870Z,10.50
2023-04-10T08:44:31.011Z,9.80
2023-04-10T08:45:34.554Z,10.82
2023-04-10T08:46:44.145Z,10.80
2023-04-10T08:47:48.728Z,9.02
2023-04-10T08:49:00.014Z,10.20
2023-04-10T08:50:06.741Z,9.90
2023-04-10T08:51:19.458Z,9.48
2023-04-10T08:52:25.698Z,11.15
2023-04-10T08:53:31.993Z,9.98
2023-04-10T08:54:38.140Z,10.05
2023-04-10T08:55:41.925Z,9.05
2023-04-10T08:56:50.934Z,10.60
2023-04-10T08:58:00.566Z,10.88
2023-04-10T08:59:04.606Z,10.18
2023-04-10T09:00:22.065Z,8.82
2023-04-10T09:01:26.703Z,10.35
2023-04-10T09:02:30.262Z,8.20
2023-04-10T09:03:33.667Z,9.23
2023-04-10T09:04:36.787Z,9.80
2023-04-10T09:05:39.953Z,9.25
2023-04-10T09:06:42.176Z,10.38
2023-04-10T09:07:45.202Z,9.63
2023-04-10T09:08:48.103Z,10.55
2023-04-10T09:09:51.086Z,11.20
2023-04-10T09:10:54.543Z,9.13
2023-04-10T09:12:01.681Z,9.82
2023-04-10T09:13:04.814Z,9.55
2023-04-10T09:14:21.044Z,9.65
2023-04-10T09:15:23.998Z,9.70
2023-04-10T09:16:30.322Z,10.02
2023-04-10T09:17:33.851Z,11.05
2023-04-10T09:18:47.966Z,10.48
2023-04-10T09:19:52.549Z,8.85
2023-04-10T09:21:06.173Z,9.23
2023-04-10T09:22:09.384Z,8.57
2023-04-10T09:23:21.951Z,8.80
2023-04-10T09:24:25.208Z,8.52
2023-04-10T09:25:33.344Z,9.15
2023-04-10T09:26:36.301Z,8.75
2023-04-10T09:27:40.040Z,8.75
2023-04-10T09:28:57.894Z,9.27
2023-04-10T09:30:01.207Z,10.00
2023-04-10T09:31:27.833Z,9.40
2023-04-10T09:32:40.873Z,9.52
2023-04-10T09:33:42.858Z,9.43
2023-04-10T09:34:57.353Z,8.80
2023-04-10T09:36:00.909Z,8.93
2023-04-10T09:37:03.935Z,8.73
2023-04-10T09:38:17.885Z,8.35
2023-04-10T09:39:21.079Z,9.05
2023-04-10T09:40:25.144Z,7.57
2023-04-10T09:41:28.220Z,8.70
2023-04-10T09:42:37.016Z,8.30
2023-04-10T09:43:39.145Z,8.15
2023-04-10T09:44:42.566Z,7.78
2023-04-10T09:45:48.291Z,8.68
2023-04-10T09:46:51.358Z,7.40
2023-04-10T09:48:07.676Z,7.68
2023-04-10T09:49:10.774Z,8.40
2023-04-10T09:50:13.731Z,8.00
2023-04-10T09:51:29.782Z,8.15
2023-04-10T09:52:34.302Z,7.95
2023-04-10T09:53:49.915Z,6.97
2023-04-10T09:54:53.690Z,7.38
2023-04-10T09:55:56.863Z,7.88
2023-04-10T09:57:00.189Z,7.05
2023-04-10T09:58:04.639Z,7.07
2023-04-10T09:59:08.665Z,7.00
2023-04-10T10:00:14.931Z,7.80
2023-04-10T10:01:18.403Z,7.55
2023-04-10T10:02:26.615Z,6.55
2023-04-10T10:03:31.193Z,6.70
2023-04-10T10:04:34.948Z,6.60
2023-04-10T10:05:40.521Z,6.82
2023-04-10T10:06:43.632Z,6.88
2023-04-10T10:07:46.071Z,7.35
2023-04-10T10:08:49.896Z,6.30
2023-04-10T10:09:53.794Z,6.55
2023-04-10T10:10:59.822Z,7.57
2023-04-10T10:12:03.433Z,6.35
2023-04-10T10:13:08.950Z,7.55
2023-04-10T10:14:16.755Z,6.25
2023-04-10T10:15:25.818Z,6.25
2023-04-10T10:16:34.741Z,6.20
2023-04-10T10:17:44.624Z,5.75
2023-04-10T10:18:55.984Z,5.75
2023-04-10T10:20:05.602Z,6.35
2023-04-10T10:21:09.797Z,6.53
2023-04-10T10:22:14.106Z,5.88
2023-04-10T10:23:17.552Z,6.22
2023-04-10T10:24:21.664Z,6.97
2023-04-10T10:25:25.489Z,6.88
2023-04-10T10:26:29.793Z,6.60
2023-04-10T10:27:33.316Z,6.47
2023-04-10T10:28:36.592Z,6.32
2023-04-10T10:29:41.107Z,6.13
2023-04-10T10:30:45.279Z,6.57
2023-04-10T10:31:48.710Z,6.75
2023-04-10T10:32:51.499Z,6.63
2023-04-10T10:33:56.488Z,6.60
2023-04-10T10:35:00.027Z,6.05
2023-04-10T10:36:02.844Z,7.22
2023-04-10T10:37:07.132Z,5.93
2023-04-10T10:38:09.707Z,7.55
2023-04-10T10:39:27.395Z,7.38
2023-04-10T10:40:33.526Z,6.72
2023-04-10T10:41:41.435Z,6.22
2023-04-10T10:42:54.561Z,7.45
2023-04-10T10:44:14.829Z,6.82
2023-04-10T10:45:19.270Z,6.55
2023-04-10T10:46:33.614Z,5.97
2023-04-10T10:47:41.957Z,6.55
2023-04-10T10:48:58.214Z,5.70
2023-04-10T10:50:02.930Z,6.20
2023-04-10T10:51:06.139Z,5.22
2023-04-10T10:52:09.070Z,6.53
2023-04-10T10:53:35.535Z,6.43
2023-04-10T10:54:47.216Z,5.90
2023-04-10T10:55:55.813Z,6.05
2023-04-10T10:56:58.791Z,5.85
2023-04-10T10:58:02.219Z,7.03
2023-04-10T10:59:05.406Z,7.10
2023-04-10T11:00:08.749Z,8.32
2023-04-10T11:01:11.700Z,7.57
2023-04-10T11:02:15.695Z,7.28
2023-04-10T11:03:31.258Z,6.93
2023-04-10T11:04:49.107Z,6.70
2023-04-10T11:05:52.425Z,6.25
2023-04-10T11:06:55.423Z,7.05
2023-04-10T11:08:09.472Z,6.18
2023-04-10T11:09:45.838Z,7.53
2023-04-10T11:11:00.593Z,6.80
2023-04-10T11:12:03.486Z,7.20
2023-04-10T11:13:24.673Z,6.95
2023-04-10T11:14:30.697Z,7.80
2023-04-10T11:15:33.956Z,6.93
2023-04-10T11:16:44.724Z,6.13
2023-04-10T11:17:49.599Z,6.35
2023-04-10T11:19:10.463Z,7.47
2023-04-10T11:20:18.296Z,7.05
2023-04-10T11:21:21.770Z,6.85
2023-04-10T11:22:25.184Z,6.78
2023-04-10T11:23:27.732Z,7.55
2023-04-10T11:24:31.263Z,6.28
2023-04-10T11:25:51.501Z,7.05
2023-04-10T11:26:54.470Z,5.65
2023-04-10T11:27:57.613Z,5.45
2023-04-10T11:28:59.809Z,6.05
2023-04-10T11:30:02.783Z,6.43
2023-04-10T11:31:19.858Z,5.85
2023-04-10T11:32:23.016Z,6.60
2023-04-10T11:33:26.586Z,7.05
2023-04-10T11:34:30.743Z,6.22
2023-04-10T11:35:35.434Z,7.35
2023-04-10T11:36:40.706Z,7.13
2023-04-10T11:37:42.755Z,6.15
2023-04-10T11:38:58.815Z,5.80
2023-04-10T11:40:05.969Z,6.80
2023-04-10T11:41:08.514Z,5.47
2023-04-10T11:42:12.659Z,5.63
2023-04-10T11:43:14.882Z,6.85
2023-04-10T11:44:27.532Z,7.57
2023-04-10T11:45:29.487Z,6.10
2023-04-10T11:46:33.147Z,5.97
2023-04-10T11:47:35.174Z,5.85
2023-04-10T11:48:38.422Z,6.50
2023-04-10T11:49:42.430Z,5.82
2023-04-10T11:50:45.795Z,5.80
2023-04-10T11:51:50.867Z,5.53
2023-04-10T11:52:54.569Z,6.13
2023-04-10T11:54:08.979Z,7.03
2023-04-10T11:55:11.144Z,6.10
2023-04-10T11:56:18.764Z,5.90
2023-04-10T11:57:21.730Z,5.45
2023-04-10T11:58:27.793Z,5.20
2023-04-10T11:59:31.844Z,5.20
2023-04-10T12:00:33.977Z,5.30
2023-04-10T12:01:37.249Z,5.70
2023-04-10T12:02:51.407Z,5.50
2023-04-10T12:03:55.012Z,5.95
2023-04-10T12:04:58.898Z,6.20
2023-04-10T12:06:03.358Z,5.80
2023-04-10T12:07:06.268Z,5.35
2023-04-10T12:08:08.242Z,6.20
2023-04-10T12:09:15.710Z,5.22
2023-04-10T12:10:17.953Z,5.10
2023-04-10T12:11:21.729Z,4.97
2023-04-10T12:12:36.266Z,5.20
2023-04-10T12:13:39.859Z,5.78
2023-04-10T12:14:43.914Z,6.40
2023-04-10T12:15:46.414Z,5.90
2023-04-10T12:16:49.490Z,6.85
2023-04-10T12:17:51.860Z,5.95
2023-04-10T12:18:55.831Z,5.60
2023-04-10T12:19:59.206Z,6.93
2023-04-10T12:21:04.717Z,6.10
2023-04-10T12:22:08.539Z,5.45
2023-04-10T12:23:11.131Z,5.25
2023-04-10T12:24:14.671Z,5.50
2023-04-10T12:25:21.499Z,5.28
2023-04-10T12:26:24.540Z,5.25
2023-04-10T12:27:28.016Z,5.18
2023-04-10T12:28:30.970Z,5.25
2023-04-10T12:29:32.912Z,4.40
2023-04-10T12:30:36.056Z,4.90
2023-04-10T12:31:39.002Z,5.75
2023-04-10T12:32:41.012Z,5.97
2023-04-10T12:33:45.672Z,4.97
2023-04-10T12:34:51.645Z,4.93
2023-04-10T12:35:54.759Z,5.10
2023-04-10T12:36:59.296Z,5.07
2023-04-10T12:38:01.243Z,4.90
2023-04-10T12:39:05.703Z,5.70
2023-04-10T12:40:08.870Z,4.57
2023-04-10T12:41:12.838Z,4.57
2023-04-10T12:42:16.699Z,5.10
2023-04-10T12:43:32.842Z,5.32
2023-04-10T12:44:36.201Z,4.75
2023-04-10T12:45:44.692Z,4.30
2023-04-10T12:46:47.583Z,4.80
2023-04-10T12:47:51.789Z,5.10
2023-04-10T12:48:55.955Z,4.78
2023-04-10T12:50:06.224Z,4.20
2023-04-10T12:51:09.148Z,4.78
2023-04-10T12:52:23.770Z,5.40
2023-04-10T12:53:27.426Z,5.65
2023-04-10T12:54:31.384Z,5.50
2023-04-10T12:55:34.471Z,4.15
2023-04-10T12:56:44.570Z,4.63
2023-04-10T12:57:48.456Z,4.53
2023-04-10T12:59:07.202Z,5.55
2023-04-10T13:00:11.085Z,4.97
2023-04-10T13:01:14.786Z,4.80
2023-04-10T13:02:18.755Z,4.45
2023-04-10T13:03:22.128Z,4.15
2023-04-10T13:04:25.685Z,4.40
2023-04-10T13:05:27.793Z,4.72
2023-04-10T13:06:30.786Z,5.78
2023-04-10T13:07:36.303Z,4.78
2023-04-10T13:08:39.584Z,4.05
2023-04-10T13:09:41.549Z,5.70
2023-04-10T13:10:44.600Z,4.38
2023-04-10T13:11:48.099Z,4.95
2023-04-10T13:12:52.036Z,4.35
2023-04-10T13:13:53.950Z,4.95
2023-04-10T13:14:57.151Z,5.00
2023-04-10T13:16:00.765Z,4.45
2023-04-10T13:17:02.739Z,4.40
2023-04-10T13:18:07.033Z,4.32
2023-04-10T13:19:09.034Z,5.00
2023-04-10T13:20:13.399Z,4.53
2023-04-10T13:21:19.886Z,4.70
2023-04-10T13:22:22.897Z,4.18
2023-04-10T13:23:27.192Z,4.50
2023-04-10T13:24:31.022Z,4.07
2023-04-10T13:25:39.725Z,5.38
2023-04-10T13:26:42.812Z,3.90
2023-04-10T13:27:45.859Z,4.30
2023-04-10T13:28:48.803Z,4.50
2023-04-10T13:29:50.747Z,4.38
2023-04-10T13:30:53.649Z,3.38
2023-04-10T13:31:55.906Z,4.70
2023-04-10T13:32:58.990Z,3.85
2023-04-10T13:34:01.959Z,4.55
2023-04-10T13:35:05.449Z,3.67
2023-04-10T13:36:09.087Z,3.47
2023-04-10T13:37:13.151Z,3.55
2023-04-10T13:38:16.660Z,3.28
2023-04-10T13:39:20.005Z,3.40
2023-04-10T13:40:23.244Z,3.60
2023-04-10T13:41:26.166Z,3.53
2023-04-10T13:42:28.127Z,3.22
2023-04-10T13:43:31.318Z,4.25
2023-04-10T13:44:33.555Z,4.03
2023-04-10T13:45:36.502Z,4.05
2023-04-10T13:46:38.457Z,4.10
2023-04-10T13:47:41.510Z,3.53
2023-04-10T13:48:44.508Z,3.95
2023-04-10T13:49:46.532Z,4.28
2023-04-10T13:50:49.479Z,4.20
2023-04-10T13:51:52.421Z,3.30
2023-04-10T13:52:54.356Z,3.88
2023-04-10T13:53:57.348Z,3.00
2023-04-10T13:55:01.198Z,3.90
2023-04-10T13:56:04.151Z,4.00
2023-04-10T13:57:07.088Z,3.20
2023-04-10T13:58:10.021Z,3.92
2023-04-10T13:59:11.956Z,3.45
2023-04-10T14:00:16.065Z,3.65
2023-04-10T14:01:18.122Z,3.58
2023-04-10T14:02:21.298Z,4.15
2023-04-10T14:03:24.451Z,4.03
2023-04-10T14:04:26.518Z,4.68
2023-04-10T14:05:29.438Z,3.28
2023-04-10T14:06:31.855Z,4.40
2023-04-10T14:07:34.843Z,3.47
2023-04-10T14:08:36.804Z,4.93
2023-04-10T14:09:39.929Z,3.20
2023-04-10T14:10:44.229Z,4.65
2023-04-10T14:11:46.182Z,3.63
2023-04-10T14:12:49.146Z,3.90